createdAt,value
2023-01-11T00:01:12.501Z,43.80
2023-01-11T00:03:40.961Z,50.70
2023-01-11T00:06:10.710Z,52.40
2023-01-11T00:08:39.319Z,52.00
2023-01-11T00:11:14.858Z,46.00
2023-01-11T00:13:44.600Z,44.00
2023-01-11T00:16:13.705Z,43.70
2023-01-11T00:18:42.553Z,54.80
2023-01-11T00:21:11.210Z,49.80
2023-01-11T00:23:39.560Z,53.30
2023-01-11T00:26:11.566Z,56.60
2023-01-11T00:28:40.317Z,47.00
2023-01-11T00:31:09.726Z,49.40
2023-01-11T00:33:38.215Z,48.60
2023-01-11T00:36:08.039Z,55.00
2023-01-11T00:38:52.822Z,48.80
2023-01-11T00:41:41.419Z,49.20
2023-01-11T00:44:30.061Z,49.80
2023-01-11T00:47:17.193Z,59.40
2023-01-11T00:49:45.637Z,53.50
2023-01-11T00:52:14.329Z,49.70
2023-01-11T00:54:43.258Z,49.40
2023-01-11T00:57:11.565Z,53.30
2023-01-11T00:59:40.756Z,63.40
2023-01-11T01:02:11.064Z,54.30
2023-01-11T01:04:40.452Z,49.10
2023-01-11T01:07:08.957Z,40.90
2023-01-11T01:09:37.673Z,44.60
2023-01-11T01:12:08.391Z,49.40
2023-01-11T01:14:36.691Z,48.80
2023-01-11T01:17:07.815Z,41.60
2023-01-11T01:19:38.447Z,39.70
2023-01-11T01:22:07.006Z,41.50
2023-01-11T01:24:35.942Z,41.50
2023-01-11T01:27:04.523Z,41.20
2023-01-11T01:29:32.847Z,40.30
2023-01-11T01:32:01.239Z,38.70
2023-01-11T01:34:30.072Z,36.50
2023-01-11T01:36:58.519Z,40.10
2023-01-11T01:39:27.152Z,37.10
2023-01-11T01:41:55.516Z,36.50
2023-01-11T01:44:59.456Z,37.90
2023-01-11T01:47:34.375Z,42.80
2023-01-11T01:50:07.945Z,39.30
2023-01-11T01:52:37.563Z,36.60
2023-01-11T01:55:10.526Z,33.70
2023-01-11T01:57:41.206Z,34.30
2023-01-11T02:00:12.358Z,37.10
2023-01-11T02:02:43.172Z,31.20
2023-01-11T02:05:14.515Z,36.00
2023-01-11T02:07:45.000Z,35.10
2023-01-11T02:10:16.338Z,34.50
2023-01-11T02:12:49.283Z,36.10
2023-01-11T02:15:20.573Z,40.80
2023-01-11T02:17:49.078Z,32.90
2023-01-11T02:20:34.636Z,37.40
2023-01-11T02:23:36.397Z,40.50
2023-01-11T02:26:36.144Z,37.40
2023-01-11T02:29:13.338Z,40.30
2023-01-11T02:31:47.546Z,36.30
2023-01-11T02:34:27.335Z,38.00
2023-01-11T02:37:07.329Z,32.70
2023-01-11T02:39:47.447Z,31.10
2023-01-11T02:42:43.458Z,35.20
2023-01-11T02:45:19.704Z,30.50
2023-01-11T02:47:55.272Z,37.00
2023-01-11T02:50:30.381Z,29.70
2023-01-11T02:53:05.722Z,30.10
2023-01-11T02:55:39.459Z,27.50
2023-01-11T02:58:11.521Z,31.40
2023-01-11T03:00:41.301Z,32.10
2023-01-11T03:03:15.291Z,30.30
2023-01-11T03:05:49.990Z,32.90
2023-01-11T03:08:33.854Z,35.70
2023-01-11T03:11:07.346Z,25.80
2023-01-11T03:13:49.585Z,31.90
2023-01-11T03:16:24.074Z,32.10
2023-01-11T03:19:01.145Z,23.30
2023-01-11T03:21:49.565Z,29.00
2023-01-11T03:24:28.603Z,26.30
2023-01-11T03:27:07.846Z,26.10
2023-01-11T03:29:40.209Z,28.90
2023-01-11T03:34:51.841Z,26.80
2023-01-11T03:37:26.443Z,21.90
2023-01-11T03:40:02.109Z,24.90
2023-01-11T03:42:33.122Z,26.30
2023-01-11T03:45:04.193Z,26.80
2023-01-11T03:47:34.502Z,26.50
2023-01-11T03:50:06.368Z,23.90
2023-01-11T03:52:40.823Z,16.10
2023-01-11T03:55:12.335Z,26.50
2023-01-11T03:57:46.433Z,25.80
2023-01-11T04:00:15.719Z,24.10
2023-01-11T04:02:44.045Z,22.90
2023-01-11T04:05:12.813Z,25.30
2023-01-11T04:07:41.188Z,31.30
2023-01-11T04:10:11.945Z,27.90
2023-01-11T04:12:40.292Z,26.60
2023-01-11T04:15:12.504Z,29.00
2023-01-11T04:17:40.875Z,22.80
2023-01-11T04:20:11.769Z,19.20
2023-01-11T04:22:40.200Z,24.20
2023-01-11T04:25:09.432Z,22.20
2023-01-11T04:27:39.845Z,19.80
2023-01-11T04:30:12.135Z,27.30
2023-01-11T04:32:40.556Z,23.50
2023-01-11T04:35:09.741Z,23.30
2023-01-11T04:37:38.068Z,29.70
2023-01-11T04:40:09.337Z,24.10
2023-01-11T04:42:37.799Z,23.20
2023-01-11T04:45:07.866Z,24.10
2023-01-11T04:47:36.440Z,29.10
2023-01-11T04:50:06.407Z,23.70
2023-01-11T04:52:35.144Z,30.60
2023-01-11T04:55:04.765Z,22.90
2023-01-11T04:57:33.109Z,25.70
2023-01-11T05:00:01.520Z,26.40
2023-01-11T05:02:30.239Z,26.00
2023-01-11T05:04:58.506Z,34.70
2023-01-11T05:07:26.789Z,30.90
2023-01-11T05:09:55.044Z,33.70
2023-01-11T05:12:23.382Z,37.90
2023-01-11T05:14:51.698Z,36.20
2023-01-11T05:17:20.236Z,33.30
2023-01-11T05:19:48.658Z,36.00
2023-01-11T05:22:16.895Z,38.50
2023-01-11T05:24:45.764Z,35.60
2023-01-11T05:27:13.977Z,32.50
2023-01-11T05:29:43.662Z,32.40
2023-01-11T05:32:12.567Z,33.20
2023-01-11T05:34:40.909Z,31.00
2023-01-11T05:37:09.183Z,29.00
2023-01-11T05:39:37.450Z,29.10
2023-01-11T05:42:06.107Z,29.10
2023-01-11T05:44:52.895Z,29.20
2023-01-11T05:47:21.197Z,33.10
2023-01-11T05:49:49.791Z,30.00
2023-01-11T05:52:18.125Z,26.90
2023-01-11T05:54:46.625Z,29.00
2023-01-11T05:57:14.833Z,26.50
2023-01-11T05:59:43.684Z,21.80
2023-01-11T06:02:12.128Z,25.40
2023-01-11T06:04:40.756Z,28.10
2023-01-11T06:07:09.215Z,27.40
2023-01-11T06:09:37.509Z,24.00
2023-01-11T06:12:06.541Z,21.90
2023-01-11T06:14:37.817Z,24.90
2023-01-11T06:17:06.415Z,25.10
2023-01-11T06:19:34.737Z,22.90
2023-01-11T06:22:05.861Z,26.90
2023-01-11T06:24:34.200Z,29.50
2023-01-11T06:27:02.487Z,20.80
2023-01-11T06:29:30.882Z,21.40
2023-01-11T06:31:59.211Z,25.80
2023-01-11T06:34:27.582Z,24.00
2023-01-11T06:36:55.906Z,21.00
2023-01-11T06:39:24.460Z,22.90
2023-01-11T06:41:52.853Z,20.90
2023-01-11T06:44:21.564Z,23.40
2023-01-11T06:46:50.250Z,26.60
2023-01-11T06:49:18.990Z,16.80
2023-01-11T06:51:48.397Z,18.50
2023-01-11T06:54:23.474Z,22.40
2023-01-11T06:56:51.789Z,22.30
2023-01-11T06:59:20.170Z,19.10
2023-01-11T07:01:48.667Z,21.90
2023-01-11T07:04:18.007Z,24.20
2023-01-11T07:06:46.838Z,21.50
2023-01-11T07:09:15.201Z,25.80
2023-01-11T07:11:43.524Z,25.00
2023-01-11T07:14:19.449Z,26.80
2023-01-11T07:16:48.202Z,25.10
2023-01-11T07:19:17.365Z,32.80
2023-01-11T07:21:45.760Z,23.00
2023-01-11T07:24:14.150Z,20.90
2023-01-11T07:26:42.631Z,21.00
2023-01-11T07:29:11.782Z,26.60
2023-01-11T07:31:40.605Z,19.80
2023-01-11T07:34:09.011Z,24.20
2023-01-11T07:36:38.954Z,23.70
2023-01-11T07:39:08.016Z,24.90
2023-01-11T07:41:55.528Z,25.50
2023-01-11T07:44:24.737Z,22.00
2023-01-11T07:46:54.227Z,25.80
2023-01-11T07:49:22.789Z,19.80
2023-01-11T07:51:51.696Z,23.50
2023-01-11T07:54:20.327Z,27.20
2023-01-11T07:56:48.887Z,25.70
2023-01-11T07:59:17.537Z,26.80
2023-01-11T08:01:46.048Z,25.40
2023-01-11T08:04:14.494Z,22.70
2023-01-11T08:06:43.092Z,32.40
2023-01-11T08:09:11.728Z,25.90
2023-01-11T08:11:59.018Z,20.80
2023-01-11T08:14:39.231Z,18.90
2023-01-11T08:17:08.810Z,26.40
2023-01-11T08:19:37.344Z,23.10
2023-01-11T08:22:06.438Z,21.20
2023-01-11T08:24:34.939Z,19.60
2023-01-11T08:27:04.202Z,23.90
2023-01-11T08:29:32.974Z,23.30
2023-01-11T08:32:01.362Z,20.60
2023-01-11T08:34:29.855Z,27.40
2023-01-11T08:37:01.190Z,24.20
2023-01-11T08:39:30.331Z,29.80
2023-01-11T08:41:59.448Z,29.10
2023-01-11T08:44:38.387Z,21.10
2023-01-11T08:47:06.772Z,25.30
2023-01-11T08:49:35.335Z,25.20
2023-01-11T08:52:04.410Z,28.50
2023-01-11T08:54:32.921Z,27.20
2023-01-11T08:57:01.251Z,22.10
2023-01-11T08:59:30.359Z,25.30
2023-01-11T09:01:59.003Z,24.10
2023-01-11T09:04:28.064Z,21.60
2023-01-11T09:06:57.021Z,22.40
2023-01-11T09:09:25.438Z,18.70
2023-01-11T09:11:55.841Z,26.30
2023-01-11T09:14:26.569Z,19.20
2023-01-11T09:16:55.947Z,26.10
2023-01-11T09:19:24.475Z,18.60
2023-01-11T09:21:56.084Z,14.90
2023-01-11T09:24:24.439Z,21.70
2023-01-11T09:26:52.980Z,18.80
2023-01-11T09:29:21.468Z,14.20
2023-01-11T09:31:50.271Z,20.10
2023-01-11T09:34:20.244Z,20.50
2023-01-11T09:36:49.127Z,19.60
2023-01-11T09:39:21.766Z,20.00
2023-01-11T09:42:36.032Z,18.50
2023-01-11T09:45:14.738Z,15.60
2023-01-11T09:47:50.335Z,18.60
2023-01-11T09:50:23.125Z,17.20
2023-01-11T09:52:54.370Z,15.50
2023-01-11T09:55:32.337Z,15.40
2023-01-11T09:58:22.327Z,16.50
2023-01-11T10:01:01.239Z,12.60
2023-01-11T10:03:59.236Z,16.10
2023-01-11T10:06:32.931Z,13.50
2023-01-11T10:18:28.736Z,18.90
2023-01-11T10:18:39.581Z,21.80
2023-01-11T10:21:12.612Z,20.70
2023-01-11T10:23:49.592Z,14.20
2023-01-11T10:26:27.281Z,12.30
2023-01-11T10:29:21.410Z,16.50
2023-01-11T10:32:12.849Z,14.80
2023-01-11T10:35:05.313Z,18.70
2023-01-11T10:37:53.482Z,20.80
2023-01-11T10:40:39.145Z,11.80
2023-01-11T10:43:16.120Z,17.80
2023-01-11T10:45:50.116Z,15.80
2023-01-11T10:48:23.141Z,13.70
2023-01-11T10:51:01.019Z,17.00
2023-01-11T10:53:35.594Z,15.30
2023-01-11T10:56:14.958Z,16.30
2023-01-11T10:59:01.734Z,19.10
2023-01-11T11:01:49.510Z,14.80
2023-01-11T11:04:39.510Z,13.50
2023-01-11T11:07:15.571Z,15.50
2023-01-11T11:09:51.660Z,14.40
2023-01-11T11:12:26.958Z,12.90
2023-01-11T11:15:02.569Z,16.60
2023-01-11T11:17:34.469Z,18.50
2023-01-11T11:20:13.931Z,15.80
2023-01-11T11:22:44.372Z,18.30
2023-01-11T11:25:17.994Z,20.10
2023-01-11T11:27:50.906Z,13.70
2023-01-11T11:30:30.094Z,17.50
2023-01-11T11:33:01.472Z,20.10
2023-01-11T11:35:36.651Z,17.70
2023-01-11T11:38:05.429Z,15.50
2023-01-11T11:40:35.463Z,16.90
2023-01-11T11:43:16.864Z,16.90
2023-01-11T11:45:53.233Z,15.20
2023-01-11T11:48:21.936Z,15.30
2023-01-11T11:50:52.313Z,18.90
2023-01-11T11:53:32.351Z,17.10
2023-01-11T11:56:07.371Z,16.90
2023-01-11T11:58:41.687Z,18.50
2023-01-11T12:01:23.332Z,16.20
2023-01-11T12:03:54.381Z,17.50
2023-01-11T12:06:24.936Z,19.80
2023-01-11T12:08:54.798Z,13.70
2023-01-11T12:11:29.799Z,12.20
2023-01-11T12:14:02.506Z,20.20
2023-01-11T12:16:37.879Z,18.60
2023-01-11T12:19:26.329Z,22.40
2023-01-11T12:22:11.026Z,12.20
2023-01-11T12:24:39.545Z,15.50
2023-01-11T12:27:23.686Z,17.70
2023-01-11T12:30:07.905Z,14.20
2023-01-11T12:32:56.093Z,21.20
2023-01-11T12:35:35.750Z,14.70
2023-01-11T12:38:19.952Z,16.60
2023-01-11T12:41:00.958Z,17.30
2023-01-11T12:43:42.860Z,15.80
2023-01-11T12:46:21.975Z,23.70
2023-01-11T12:49:04.910Z,21.50
2023-01-11T12:54:25.273Z,21.60
2023-01-11T12:57:13.366Z,20.80
2023-01-11T13:00:00.743Z,16.90
2023-01-11T13:02:51.813Z,15.50
2023-01-11T13:05:27.661Z,24.80
2023-01-11T13:08:10.261Z,18.10
2023-01-11T13:13:19.900Z,16.80
2023-01-11T13:15:58.419Z,20.70
2023-01-11T13:18:38.459Z,22.20
2023-01-11T13:21:16.430Z,19.30
2023-01-11T13:23:48.661Z,22.20
2023-01-11T13:26:23.348Z,24.60
2023-01-11T13:28:57.995Z,17.90
2023-01-11T13:31:26.753Z,21.40
2023-01-11T13:34:01.945Z,17.50
2023-01-11T13:36:38.306Z,21.30
2023-01-11T13:39:13.677Z,17.50
2023-01-11T13:41:47.203Z,23.30
2023-01-11T13:44:23.629Z,19.50
2023-01-11T13:47:02.314Z,19.30
2023-01-11T13:49:44.706Z,22.50
2023-01-11T13:52:17.132Z,17.70
2023-01-11T13:54:53.553Z,14.70
2023-01-11T13:57:30.049Z,21.60
2023-01-11T14:00:06.330Z,16.10
2023-01-11T14:02:47.361Z,21.10
2023-01-11T14:05:20.558Z,20.00
2023-01-11T14:10:37.665Z,16.00
2023-01-11T14:13:42.355Z,21.50
2023-01-11T14:16:21.007Z,23.10
2023-01-11T14:18:56.881Z,23.10
2023-01-11T14:21:34.121Z,24.20
2023-01-11T14:24:05.361Z,21.10
2023-01-11T14:26:57.084Z,14.60
2023-01-11T14:30:09.901Z,20.80
2023-01-11T14:32:58.802Z,15.60
2023-01-11T14:36:07.425Z,21.40
2023-01-11T14:39:03.156Z,23.70
2023-01-11T14:41:52.005Z,20.70
2023-01-11T14:45:00.748Z,21.70
2023-01-11T14:48:00.873Z,16.90
2023-01-11T14:50:41.415Z,24.90
2023-01-11T14:53:16.432Z,20.90
2023-01-11T14:55:45.755Z,26.80
2023-01-11T14:58:24.167Z,23.50
2023-01-11T15:01:11.456Z,19.70
2023-01-11T15:03:55.203Z,20.60
2023-01-11T15:06:24.204Z,22.30
2023-01-11T15:08:55.196Z,18.80
2023-01-11T15:11:36.560Z,21.10
2023-01-11T15:14:20.299Z,18.20
2023-01-11T15:17:10.591Z,17.40
2023-01-11T15:19:41.906Z,18.20
2023-01-11T15:22:24.785Z,17.80
2023-01-11T15:27:27.476Z,18.50
2023-01-11T15:29:57.293Z,21.00
2023-01-11T15:32:28.355Z,22.30
2023-01-11T15:35:31.250Z,21.70
2023-01-11T15:38:03.488Z,21.60
2023-01-11T15:40:37.426Z,15.60
2023-01-11T15:43:27.889Z,21.70
2023-01-11T15:46:36.908Z,22.40
2023-01-11T15:49:57.914Z,25.70
2023-01-11T15:52:51.513Z,19.80
2023-01-11T15:56:03.179Z,22.20
2023-01-11T15:58:52.279Z,18.10
2023-01-11T16:01:25.883Z,17.40
2023-01-11T16:04:01.088Z,18.30
2023-01-11T16:06:41.351Z,21.80
2023-01-11T16:09:24.307Z,21.00
2023-01-11T16:12:05.873Z,22.50
2023-01-11T16:14:50.377Z,22.70
2023-01-11T16:17:22.554Z,20.50
2023-01-11T16:19:55.985Z,21.40
2023-01-11T16:22:27.613Z,20.40
2023-01-11T16:25:00.529Z,26.90
2023-01-11T16:27:32.024Z,20.30
2023-01-11T16:30:01.850Z,20.30
2023-01-11T16:32:32.028Z,20.90
2023-01-11T16:35:02.252Z,27.30
2023-01-11T16:37:36.777Z,28.20
2023-01-11T16:40:15.946Z,18.30
2023-01-11T16:42:49.910Z,19.60
2023-01-11T16:45:21.877Z,20.80
2023-01-11T16:48:05.334Z,18.40
2023-01-11T16:50:34.862Z,18.20
2023-01-11T16:53:05.172Z,19.00
2023-01-11T16:55:37.001Z,22.10
2023-01-11T16:58:07.277Z,20.10
2023-01-11T17:00:38.724Z,22.80
2023-01-11T17:03:23.135Z,25.80
2023-01-11T17:06:16.283Z,26.60
2023-01-11T17:11:27.800Z,26.00
2023-01-11T17:14:42.089Z,27.90
2023-01-11T17:17:11.868Z,29.00
2023-01-11T17:19:45.270Z,23.90
2023-01-11T17:22:21.104Z,27.20
2023-01-11T17:24:53.247Z,31.50
2023-01-11T17:27:25.398Z,27.80
2023-01-11T17:29:56.391Z,32.50
2023-01-11T17:32:34.895Z,28.90
2023-01-11T17:35:06.683Z,34.40
2023-01-11T17:37:36.090Z,32.10
2023-01-11T17:40:23.684Z,33.90
2023-01-11T17:43:12.329Z,32.20
2023-01-11T17:45:41.825Z,28.80
2023-01-11T17:48:12.536Z,25.70
2023-01-11T17:50:47.946Z,38.40
2023-01-11T17:53:20.713Z,30.40
2023-01-11T17:58:25.455Z,28.80
2023-01-11T18:01:17.858Z,34.10
2023-01-11T18:03:48.739Z,33.00
2023-01-11T18:06:27.101Z,32.00
2023-01-11T18:08:57.779Z,33.30
2023-01-11T18:11:28.780Z,36.40
2023-01-11T18:14:00.794Z,34.00
2023-01-11T18:16:29.352Z,31.10
2023-01-11T18:18:58.034Z,33.50
2023-01-11T18:21:39.410Z,33.00
2023-01-11T18:24:28.973Z,30.90
2023-01-11T18:27:15.378Z,31.30
2023-01-11T18:29:49.070Z,29.40
2023-01-11T18:32:18.395Z,29.50
2023-01-11T18:34:50.763Z,27.80
2023-01-11T18:37:19.652Z,25.70
2023-01-11T18:39:49.157Z,29.00
2023-01-11T18:42:20.498Z,24.20
2023-01-11T18:44:48.963Z,25.90
2023-01-11T18:47:20.015Z,24.40
2023-01-11T18:49:49.266Z,26.10
2023-01-11T18:52:18.490Z,26.20
2023-01-11T18:54:46.817Z,23.90
2023-01-11T18:57:23.693Z,27.10
2023-01-11T18:59:53.687Z,24.90
2023-01-11T19:02:26.050Z,24.60
2023-01-11T19:04:55.412Z,26.70
2023-01-11T19:07:25.388Z,30.10
2023-01-11T19:09:54.580Z,21.50
2023-01-11T19:12:25.286Z,27.00
2023-01-11T19:14:53.586Z,22.90
2023-01-11T19:17:21.855Z,24.90
2023-01-11T19:19:50.266Z,27.60
2023-01-11T19:22:19.192Z,29.60
2023-01-11T19:24:48.004Z,26.60
2023-01-11T19:27:16.531Z,29.90
2023-01-11T19:29:44.861Z,28.70
2023-01-11T19:32:14.948Z,32.30
2023-01-11T19:34:43.199Z,28.30
2023-01-11T19:37:11.489Z,29.60
2023-01-11T19:39:40.282Z,34.20
2023-01-11T19:42:08.779Z,31.00
2023-01-11T19:44:38.966Z,31.20
2023-01-11T19:47:11.894Z,35.00
2023-01-11T19:49:43.063Z,32.50
2023-01-11T19:52:17.924Z,35.70
2023-01-11T19:54:47.293Z,31.80
2023-01-11T19:57:19.378Z,30.20
2023-01-11T19:59:48.712Z,32.10
2023-01-11T20:02:20.252Z,34.00
2023-01-11T20:04:48.811Z,30.10
2023-01-11T20:07:17.166Z,36.20
2023-01-11T20:09:46.133Z,34.00
2023-01-11T20:12:15.220Z,35.10
2023-01-11T20:14:45.470Z,31.90
2023-01-11T20:17:15.111Z,28.10
2023-01-11T20:19:43.451Z,33.80
2023-01-11T20:22:12.051Z,32.60
2023-01-11T20:24:41.888Z,34.30
2023-01-11T20:27:10.982Z,31.90
2023-01-11T20:29:39.552Z,32.80
2023-01-11T20:32:31.198Z,32.00
2023-01-11T20:34:56.432Z,33.70
2023-01-11T20:37:24.863Z,31.90
2023-01-11T20:39:53.323Z,32.10
2023-01-11T20:42:26.377Z,30.20
2023-01-11T20:44:55.291Z,27.70
2023-01-11T20:47:24.528Z,30.50
2023-01-11T20:49:52.950Z,29.30
2023-01-11T20:52:21.274Z,28.50
2023-01-11T20:54:52.723Z,29.90
2023-01-11T20:57:21.247Z,33.50
2023-01-11T20:59:49.584Z,25.80
2023-01-11T21:02:18.010Z,27.80
2023-01-11T21:04:46.609Z,42.40
2023-01-11T21:07:14.966Z,33.20
2023-01-11T21:09:43.711Z,28.50
2023-01-11T21:12:12.360Z,32.00
2023-01-11T21:14:40.737Z,30.80
2023-01-11T21:17:09.180Z,31.40
2023-01-11T21:19:37.484Z,34.40
2023-01-11T21:22:05.879Z,31.80
2023-01-11T21:24:36.128Z,35.70
2023-01-11T21:27:04.668Z,28.10
2023-01-11T21:29:33.244Z,33.20
2023-01-11T21:32:01.645Z,30.90
2023-01-11T21:34:30.007Z,31.40
2023-01-11T21:36:58.325Z,28.30
2023-01-11T21:39:26.581Z,31.10
2023-01-11T21:41:55.670Z,29.50
2023-01-11T21:44:29.912Z,28.90
2023-01-11T21:46:58.610Z,32.50
2023-01-11T21:49:27.149Z,29.50
2023-01-11T21:51:55.556Z,31.70
2023-01-11T21:54:24.303Z,33.10
2023-01-11T21:56:52.929Z,27.80
2023-01-11T21:59:21.928Z,32.70
2023-01-11T22:01:50.425Z,32.70
2023-01-11T22:04:20.193Z,30.20
2023-01-11T22:06:53.541Z,29.50
2023-01-11T22:09:23.206Z,30.80
2023-01-11T22:11:51.550Z,31.20
2023-01-11T22:14:19.853Z,31.60
2023-01-11T22:16:48.192Z,28.90
2023-01-11T22:19:16.940Z,26.50
2023-01-11T22:21:45.132Z,30.20
2023-01-11T22:24:13.829Z,28.10
2023-01-11T22:26:42.661Z,30.20
2023-01-11T22:29:11.376Z,28.70
2023-01-11T22:31:41.301Z,33.80
2023-01-11T22:34:10.372Z,29.70
2023-01-11T22:36:38.992Z,30.20
2023-01-11T22:39:07.950Z,28.70
2023-01-11T22:41:36.437Z,27.50
2023-01-11T22:44:05.869Z,32.50
2023-01-11T22:46:34.693Z,31.20
2023-01-11T22:49:05.200Z,31.30
2023-01-11T22:51:35.145Z,30.20
2023-01-11T22:54:04.700Z,31.60
2023-01-11T22:56:33.078Z,29.50
2023-01-11T22:59:01.851Z,28.70
2023-01-11T23:01:32.816Z,28.40
2023-01-11T23:04:02.493Z,24.20
2023-01-11T23:06:32.756Z,31.20
2023-01-11T23:09:01.403Z,29.70
2023-01-11T23:11:50.535Z,32.50
2023-01-11T23:14:21.616Z,30.40
2023-01-11T23:16:50.192Z,35.40
2023-01-11T23:19:19.683Z,30.30
2023-01-11T23:21:48.576Z,30.10
2023-01-11T23:24:17.489Z,31.10
2023-01-11T23:26:45.875Z,29.00
2023-01-11T23:29:14.696Z,29.30
2023-01-11T23:31:43.415Z,27.90
2023-01-11T23:34:12.363Z,28.80
2023-01-11T23:36:42.287Z,28.70
2023-01-11T23:39:14.319Z,30.30
2023-01-11T23:42:01.549Z,27.60
2023-01-11T23:44:30.862Z,28.20
2023-01-11T23:47:17.388Z,29.40
2023-01-11T23:49:46.145Z,33.00
2023-01-11T23:52:14.754Z,28.60
2023-01-11T23:54:44.828Z,28.90
2023-01-11T23:57:14.064Z,27.70
2023-01-11T23:59:43.210Z,30.90
